sensor_id;sensor_type;location;lat;lon;timestamp;temperature;humidity
6256;DHT22;3161;48.794;9.784;2023-04-23T00:00:27;14.30;99.90
6256;DHT22;3161;48.794;9.784;2023-04-23T00:02:57;14.30;99.90
6256;DHT22;3161;48.794;9.784;2023-04-23T00:05:26;14.20;99.90
6256;DHT22;3161;48.794;9.784;2023-04-23T00:07:56;14.20;99.90
6256;DHT22;3161;48.794;9.784;2023-04-23T00:10:25;14.20;99.90
6256;DHT22;3161;48.794;9.784;2023-04-23T00:12:54;14.20;99.90
6256;DHT22;3161;48.794;9.784;2023-04-23T00:15:21;14.20;99.90
6256;DHT22;3161;48.794;9.784;2023-04-23T00:17:49;14.20;99.90
6256;DHT22;3161;48.794;9.784;2023-04-23T00:20:16;14.20;99.90
6256;DHT22;3161;48.794;9.784;2023-04-23T00:22:44;14.20;99.90
6256;DHT22;3161;48.794;9.784;2023-04-23T00:25:12;14.20;99.90
6256;DHT22;3161;48.794;9.784;2023-04-23T00:27:39;14.10;99.90
6256;DHT22;3161;48.794;9.784;2023-04-23T00:30:07;14.10;99.90
6256;DHT22;3161;48.794;9.784;2023-04-23T00:32:35;14.10;99.90
6256;DHT22;3161;48.794;9.784;2023-04-23T00:35:03;14.10;99.90
6256;DHT22;3161;48.794;9.784;2023-04-23T00:37:31;14.20;99.90
6256;DHT22;3161;48.794;9.784;2023-04-23T00:39:58;14.20;99.90
6256;DHT22;3161;48.794;9.784;2023-04-23T00:42:26;14.20;99.90
6256;DHT22;3161;48.794;9.784;2023-04-23T00:44:54;14.20;99.90
6256;DHT22;3161;48.794;9.784;2023-04-23T00:47:23;14.10;99.90
6256;DHT22;3161;48.794;9.784;2023-04-23T00:49:51;14.10;99.90
6256;DHT22;3161;48.794;9.784;2023-04-23T00:52:20;14.10;99.90
6256;DHT22;3161;48.794;9.784;2023-04-23T00:54:48;14.10;99.90
6256;DHT22;3161;48.794;9.784;2023-04-23T00:57:16;14.10;99.90
6256;DHT22;3161;48.794;9.784;2023-04-23T00:59:44;14.10;99.90
6256;DHT22;3161;48.794;9.784;2023-04-23T01:02:13;14.10;99.90
6256;DHT22;3161;48.794;9.784;2023-04-23T01:04:43;14.20;99.90
6256;DHT22;3161;48.794;9.784;2023-04-23T01:07:12;14.20;99.90
6256;DHT22;3161;48.794;9.784;2023-04-23T01:09:40;14.20;99.90
6256;DHT22;3161;48.794;9.784;2023-04-23T01:12:08;13.60;99.90
6256;DHT22;3161;48.794;9.784;2023-04-23T01:14:37;14.20;99.90
6256;DHT22;3161;48.794;9.784;2023-04-23T01:17:05;14.20;99.90
6256;DHT22;3161;48.794;9.784;2023-04-23T01:19:34;14.20;99.90
6256;DHT22;3161;48.794;9.784;2023-04-23T01:22:10;14.30;99.90
6256;DHT22;3161;48.794;9.784;2023-04-23T01:24:38;14.30;99.90
6256;DHT22;3161;48.794;9.784;2023-04-23T01:27:08;14.30;99.90
6256;DHT22;3161;48.794;9.784;2023-04-23T01:29:38;14.30;99.90
6256;DHT22;3161;48.794;9.784;2023-04-23T01:32:07;14.30;99.90
6256;DHT22;3161;48.794;9.784;2023-04-23T01:34:35;14.30;99.90
6256;DHT22;3161;48.794;9.784;2023-04-23T01:37:03;14.20;99.90
6256;DHT22;3161;48.794;9.784;2023-04-23T01:39:31;14.30;99.90
6256;DHT22;3161;48.794;9.784;2023-04-23T01:41:59;14.30;99.90
6256;DHT22;3161;48.794;9.784;2023-04-23T01:44:27;12.30;99.90
6256;DHT22;3161;48.794;9.784;2023-04-23T01:46:55;14.40;99.90
6256;DHT22;3161;48.794;9.784;2023-04-23T01:49:23;14.30;99.90
6256;DHT22;3161;48.794;9.784;2023-04-23T01:51:50;14.30;99.90
6256;DHT22;3161;48.794;9.784;2023-04-23T01:54:18;14.30;99.90
6256;DHT22;3161;48.794;9.784;2023-04-23T01:56:45;14.30;99.90
6256;DHT22;3161;48.794;9.784;2023-04-23T01:59:13;14.30;99.90
6256;DHT22;3161;48.794;9.784;2023-04-23T02:01:44;14.20;99.90
6256;DHT22;3161;48.794;9.784;2023-04-23T02:04:14;14.20;99.90
6256;DHT22;3161;48.794;9.784;2023-04-23T02:06:44;14.20;99.90
6256;DHT22;3161;48.794;9.784;2023-04-23T02:09:12;14.20;99.90
6256;DHT22;3161;48.794;9.784;2023-04-23T02:11:40;14.10;99.90
6256;DHT22;3161;48.794;9.784;2023-04-23T02:14:09;14.10;99.90
6256;DHT22;3161;48.794;9.784;2023-04-23T02:16:37;14.10;99.90
6256;DHT22;3161;48.794;9.784;2023-04-23T02:19:05;14.10;99.90
6256;DHT22;3161;48.794;9.784;2023-04-23T02:21:32;14.10;99.90
6256;DHT22;3161;48.794;9.784;2023-04-23T02:24:00;14.00;99.90
6256;DHT22;3161;48.794;9.784;2023-04-23T02:26:27;14.00;99.90
6256;DHT22;3161;48.794;9.784;2023-04-23T02:28:55;14.00;99.90
6256;DHT22;3161;48.794;9.784;2023-04-23T02:31:23;14.00;99.90
6256;DHT22;3161;48.794;9.784;2023-04-23T02:33:51;14.00;99.90
6256;DHT22;3161;48.794;9.784;2023-04-23T02:36:18;14.00;99.90
6256;DHT22;3161;48.794;9.784;2023-04-23T02:38:46;14.00;99.90
6256;DHT22;3161;48.794;9.784;2023-04-23T02:41:15;13.90;99.90
6256;DHT22;3161;48.794;9.784;2023-04-23T02:43:43;13.90;99.90
6256;DHT22;3161;48.794;9.784;2023-04-23T02:46:10;13.90;99.90
6256;DHT22;3161;48.794;9.784;2023-04-23T02:48:39;13.90;99.90
6256;DHT22;3161;48.794;9.784;2023-04-23T02:51:11;13.80;99.90
6256;DHT22;3161;48.794;9.784;2023-04-23T02:53:39;13.80;99.90
6256;DHT22;3161;48.794;9.784;2023-04-23T02:56:07;13.80;99.90
6256;DHT22;3161;48.794;9.784;2023-04-23T02:58:35;13.80;99.90
6256;DHT22;3161;48.794;9.784;2023-04-23T03:01:03;13.80;99.90
6256;DHT22;3161;48.794;9.784;2023-04-23T03:03:32;13.80;99.90
6256;DHT22;3161;48.794;9.784;2023-04-23T03:06:01;13.80;99.90
6256;DHT22;3161;48.794;9.784;2023-04-23T03:08:29;13.70;99.90
6256;DHT22;3161;48.794;9.784;2023-04-23T03:10:56;13.70;99.90
6256;DHT22;3161;48.794;9.784;2023-04-23T03:13:25;13.70;99.90
6256;DHT22;3161;48.794;9.784;2023-04-23T03:18:41;13.70;99.90
6256;DHT22;3161;48.794;9.784;2023-04-23T03:21:08;13.70;99.90
6256;DHT22;3161;48.794;9.784;2023-04-23T03:23:36;13.60;99.90
6256;DHT22;3161;48.794;9.784;2023-04-23T03:26:03;13.60;99.90
6256;DHT22;3161;48.794;9.784;2023-04-23T03:28:31;13.60;99.90
6256;DHT22;3161;48.794;9.784;2023-04-23T03:30:59;13.50;99.90
6256;DHT22;3161;48.794;9.784;2023-04-23T03:33:26;13.50;99.90
6256;DHT22;3161;48.794;9.784;2023-04-23T03:35:54;13.50;99.90
6256;DHT22;3161;48.794;9.784;2023-04-23T03:38:21;13.50;99.90
6256;DHT22;3161;48.794;9.784;2023-04-23T03:40:49;13.50;99.90
6256;DHT22;3161;48.794;9.784;2023-04-23T03:43:16;13.50;99.90
6256;DHT22;3161;48.794;9.784;2023-04-23T03:45:44;13.50;99.90
6256;DHT22;3161;48.794;9.784;2023-04-23T03:48:12;13.40;99.90
6256;DHT22;3161;48.794;9.784;2023-04-23T03:50:39;13.40;99.90
6256;DHT22;3161;48.794;9.784;2023-04-23T03:53:07;13.40;99.90
6256;DHT22;3161;48.794;9.784;2023-04-23T03:55:35;13.40;99.90
6256;DHT22;3161;48.794;9.784;2023-04-23T03:58:03;13.40;99.90
6256;DHT22;3161;48.794;9.784;2023-04-23T04:00:30;13.40;99.90
6256;DHT22;3161;48.794;9.784;2023-04-23T04:02:58;13.30;99.90
6256;DHT22;3161;48.794;9.784;2023-04-23T04:05:28;13.40;99.90
6256;DHT22;3161;48.794;9.784;2023-04-23T04:07:55;13.30;99.90
6256;DHT22;3161;48.794;9.784;2023-04-23T04:10:23;13.30;99.90
6256;DHT22;3161;48.794;9.784;2023-04-23T04:12:51;13.20;99.90
6256;DHT22;3161;48.794;9.784;2023-04-23T04:15:20;13.20;99.90
6256;DHT22;3161;48.794;9.784;2023-04-23T04:17:48;13.20;99.90
6256;DHT22;3161;48.794;9.784;2023-04-23T04:20:16;13.20;99.90
6256;DHT22;3161;48.794;9.784;2023-04-23T04:22:43;13.20;99.90
6256;DHT22;3161;48.794;9.784;2023-04-23T04:25:12;13.20;99.90
6256;DHT22;3161;48.794;9.784;2023-04-23T04:27:39;13.20;99.90
6256;DHT22;3161;48.794;9.784;2023-04-23T04:30:08;13.20;99.90
6256;DHT22;3161;48.794;9.784;2023-04-23T04:32:36;13.20;99.90
6256;DHT22;3161;48.794;9.784;2023-04-23T04:35:05;13.20;99.90
6256;DHT22;3161;48.794;9.784;2023-04-23T04:37:37;13.20;99.90
6256;DHT22;3161;48.794;9.784;2023-04-23T04:40:06;13.20;99.90
6256;DHT22;3161;48.794;9.784;2023-04-23T04:42:34;13.20;99.90
6256;DHT22;3161;48.794;9.784;2023-04-23T04:45:03;13.20;99.90
6256;DHT22;3161;48.794;9.784;2023-04-23T04:47:31;13.20;99.90
6256;DHT22;3161;48.794;9.784;2023-04-23T04:49:59;13.20;99.90
6256;DHT22;3161;48.794;9.784;2023-04-23T04:52:27;13.20;99.90
6256;DHT22;3161;48.794;9.784;2023-04-23T04:54:54;13.20;99.90
6256;DHT22;3161;48.794;9.784;2023-04-23T04:57:22;13.30;99.90
6256;DHT22;3161;48.794;9.784;2023-04-23T04:59:49;13.30;99.90
6256;DHT22;3161;48.794;9.784;2023-04-23T05:02:17;13.30;99.90
6256;DHT22;3161;48.794;9.784;2023-04-23T05:04:45;13.30;99.90
6256;DHT22;3161;48.794;9.784;2023-04-23T05:07:13;13.30;99.90
6256;DHT22;3161;48.794;9.784;2023-04-23T05:09:40;13.30;99.90
6256;DHT22;3161;48.794;9.784;2023-04-23T05:12:08;13.30;99.90
6256;DHT22;3161;48.794;9.784;2023-04-23T05:14:35;13.30;99.90
6256;DHT22;3161;48.794;9.784;2023-04-23T05:17:03;13.30;99.90
6256;DHT22;3161;48.794;9.784;2023-04-23T05:19:30;13.30;99.90
6256;DHT22;3161;48.794;9.784;2023-04-23T05:21:58;13.30;99.90
6256;DHT22;3161;48.794;9.784;2023-04-23T05:24:27;13.30;99.90
6256;DHT22;3161;48.794;9.784;2023-04-23T05:26:55;13.30;99.90
6256;DHT22;3161;48.794;9.784;2023-04-23T05:29:22;13.30;99.90
6256;DHT22;3161;48.794;9.784;2023-04-23T05:31:50;13.30;99.90
6256;DHT22;3161;48.794;9.784;2023-04-23T05:34:17;13.30;99.90
6256;DHT22;3161;48.794;9.784;2023-04-23T05:36:45;13.30;99.90
6256;DHT22;3161;48.794;9.784;2023-04-23T05:39:12;13.30;99.90
6256;DHT22;3161;48.794;9.784;2023-04-23T05:41:40;13.30;99.90
6256;DHT22;3161;48.794;9.784;2023-04-23T05:44:07;13.30;99.90
6256;DHT22;3161;48.794;9.784;2023-04-23T05:46:35;13.30;99.90
6256;DHT22;3161;48.794;9.784;2023-04-23T05:49:04;13.30;99.90
6256;DHT22;3161;48.794;9.784;2023-04-23T05:51:31;13.30;99.90
6256;DHT22;3161;48.794;9.784;2023-04-23T05:53:59;13.40;99.90
6256;DHT22;3161;48.794;9.784;2023-04-23T05:56:27;13.40;99.90
6256;DHT22;3161;48.794;9.784;2023-04-23T05:58:54;13.40;99.90
6256;DHT22;3161;48.794;9.784;2023-04-23T06:01:22;13.50;99.90
6256;DHT22;3161;48.794;9.784;2023-04-23T06:03:50;13.50;99.90
6256;DHT22;3161;48.794;9.784;2023-04-23T06:06:18;13.60;99.90
6256;DHT22;3161;48.794;9.784;2023-04-23T06:08:46;13.60;99.90
6256;DHT22;3161;48.794;9.784;2023-04-23T06:11:13;13.80;99.90
6256;DHT22;3161;48.794;9.784;2023-04-23T06:13:41;13.80;99.90
6256;DHT22;3161;48.794;9.784;2023-04-23T06:16:10;13.90;99.90
6256;DHT22;3161;48.794;9.784;2023-04-23T06:18:37;13.90;99.90
6256;DHT22;3161;48.794;9.784;2023-04-23T06:21:05;13.90;99.90
6256;DHT22;3161;48.794;9.784;2023-04-23T06:23:33;13.90;99.90
6256;DHT22;3161;48.794;9.784;2023-04-23T06:26:21;13.90;99.90
6256;DHT22;3161;48.794;9.784;2023-04-23T06:28:49;13.80;99.90
6256;DHT22;3161;48.794;9.784;2023-04-23T06:31:16;13.90;99.90
6256;DHT22;3161;48.794;9.784;2023-04-23T06:33:44;13.90;99.90
6256;DHT22;3161;48.794;9.784;2023-04-23T06:36:12;14.00;99.90
6256;DHT22;3161;48.794;9.784;2023-04-23T06:38:40;14.00;99.90
6256;DHT22;3161;48.794;9.784;2023-04-23T06:41:07;14.10;99.90
6256;DHT22;3161;48.794;9.784;2023-04-23T06:43:35;14.10;99.90
6256;DHT22;3161;48.794;9.784;2023-04-23T06:46:02;14.20;99.90
6256;DHT22;3161;48.794;9.784;2023-04-23T06:48:30;14.20;99.90
6256;DHT22;3161;48.794;9.784;2023-04-23T06:50:58;14.30;99.90
6256;DHT22;3161;48.794;9.784;2023-04-23T06:53:25;14.40;99.90
6256;DHT22;3161;48.794;9.784;2023-04-23T06:55:53;14.50;99.90
6256;DHT22;3161;48.794;9.784;2023-04-23T06:58:20;14.50;99.90
6256;DHT22;3161;48.794;9.784;2023-04-23T07:00:50;14.50;99.90
6256;DHT22;3161;48.794;9.784;2023-04-23T07:03:18;14.60;99.90
6256;DHT22;3161;48.794;9.784;2023-04-23T07:05:46;14.70;99.90
6256;DHT22;3161;48.794;9.784;2023-04-23T07:08:13;14.90;99.90
6256;DHT22;3161;48.794;9.784;2023-04-23T07:10:41;14.90;99.90
6256;DHT22;3161;48.794;9.784;2023-04-23T07:13:08;14.90;99.90
6256;DHT22;3161;48.794;9.784;2023-04-23T07:15:36;15.00;99.90
6256;DHT22;3161;48.794;9.784;2023-04-23T07:18:05;15.10;99.90
6256;DHT22;3161;48.794;9.784;2023-04-23T07:20:32;15.30;99.90
6256;DHT22;3161;48.794;9.784;2023-04-23T07:23:00;15.40;99.90
6256;DHT22;3161;48.794;9.784;2023-04-23T07:25:29;15.70;99.90
6256;DHT22;3161;48.794;9.784;2023-04-23T07:27:57;16.30;99.90
6256;DHT22;3161;48.794;9.784;2023-04-23T07:30:26;16.70;99.90
6256;DHT22;3161;48.794;9.784;2023-04-23T07:32:54;17.00;99.90
6256;DHT22;3161;48.794;9.784;2023-04-23T07:35:21;17.20;99.90
6256;DHT22;3161;48.794;9.784;2023-04-23T07:37:49;17.40;99.90
6256;DHT22;3161;48.794;9.784;2023-04-23T07:40:20;17.50;99.90
6256;DHT22;3161;48.794;9.784;2023-04-23T07:42:48;17.40;99.90
6256;DHT22;3161;48.794;9.784;2023-04-23T07:45:17;17.60;99.90
6256;DHT22;3161;48.794;9.784;2023-04-23T07:47:45;17.80;99.90
6256;DHT22;3161;48.794;9.784;2023-04-23T07:50:12;17.70;99.90
6256;DHT22;3161;48.794;9.784;2023-04-23T07:52:40;17.70;99.90
6256;DHT22;3161;48.794;9.784;2023-04-23T07:55:08;17.70;99.90
6256;DHT22;3161;48.794;9.784;2023-04-23T07:57:36;17.90;99.90
6256;DHT22;3161;48.794;9.784;2023-04-23T08:00:04;18.40;99.90
6256;DHT22;3161;48.794;9.784;2023-04-23T08:02:34;19.50;99.90
6256;DHT22;3161;48.794;9.784;2023-04-23T08:05:02;20.50;99.90
6256;DHT22;3161;48.794;9.784;2023-04-23T08:07:29;21.40;99.90
6256;DHT22;3161;48.794;9.784;2023-04-23T08:09:57;21.70;99.90
6256;DHT22;3161;48.794;9.784;2023-04-23T08:12:26;21.70;99.90
6256;DHT22;3161;48.794;9.784;2023-04-23T08:14:54;21.40;99.90
6256;DHT22;3161;48.794;9.784;2023-04-23T08:17:21;21.70;99.90
6256;DHT22;3161;48.794;9.784;2023-04-23T08:19:49;21.80;99.90
6256;DHT22;3161;48.794;9.784;2023-04-23T08:22:16;21.50;99.90
6256;DHT22;3161;48.794;9.784;2023-04-23T08:24:44;21.50;99.90
6256;DHT22;3161;48.794;9.784;2023-04-23T08:27:11;21.50;99.90
6256;DHT22;3161;48.794;9.784;2023-04-23T08:29:39;21.20;99.90
6256;DHT22;3161;48.794;9.784;2023-04-23T08:32:07;20.80;99.90
6256;DHT22;3161;48.794;9.784;2023-04-23T08:34:34;20.30;99.90
6256;DHT22;3161;48.794;9.784;2023-04-23T08:37:02;19.70;99.90
6256;DHT22;3161;48.794;9.784;2023-04-23T08:39:30;19.20;99.90
6256;DHT22;3161;48.794;9.784;2023-04-23T08:42:03;18.70;99.90
6256;DHT22;3161;48.794;9.784;2023-04-23T08:44:30;18.20;99.90
6256;DHT22;3161;48.794;9.784;2023-04-23T08:47:00;17.80;99.90
6256;DHT22;3161;48.794;9.784;2023-04-23T08:49:32;17.60;99.90
6256;DHT22;3161;48.794;9.784;2023-04-23T08:52:15;17.30;99.90
6256;DHT22;3161;48.794;9.784;2023-04-23T08:54:45;17.00;99.90
6256;DHT22;3161;48.794;9.784;2023-04-23T08:57:16;16.80;99.90
6256;DHT22;3161;48.794;9.784;2023-04-23T08:59:44;16.70;99.90
6256;DHT22;3161;48.794;9.784;2023-04-23T09:02:13;16.50;99.90
6256;DHT22;3161;48.794;9.784;2023-04-23T09:04:41;16.60;99.90
6256;DHT22;3161;48.794;9.784;2023-04-23T09:07:09;16.60;99.90
6256;DHT22;3161;48.794;9.784;2023-04-23T09:09:40;16.70;99.90
6256;DHT22;3161;48.794;9.784;2023-04-23T09:12:08;16.80;99.90
6256;DHT22;3161;48.794;9.784;2023-04-23T09:14:36;16.90;99.90
6256;DHT22;3161;48.794;9.784;2023-04-23T09:17:04;17.10;99.90
6256;DHT22;3161;48.794;9.784;2023-04-23T09:19:32;17.30;99.90
6256;DHT22;3161;48.794;9.784;2023-04-23T09:21:59;17.50;99.90
6256;DHT22;3161;48.794;9.784;2023-04-23T09:24:27;17.70;99.90
6256;DHT22;3161;48.794;9.784;2023-04-23T09:26:57;17.80;99.90
6256;DHT22;3161;48.794;9.784;2023-04-23T09:29:24;18.00;99.90
6256;DHT22;3161;48.794;9.784;2023-04-23T09:31:54;18.20;99.90
6256;DHT22;3161;48.794;9.784;2023-04-23T09:34:23;18.40;99.90
6256;DHT22;3161;48.794;9.784;2023-04-23T09:36:52;18.80;99.90
6256;DHT22;3161;48.794;9.784;2023-04-23T09:39:23;19.00;99.90
6256;DHT22;3161;48.794;9.784;2023-04-23T09:41:51;19.20;99.90
6256;DHT22;3161;48.794;9.784;2023-04-23T09:44:20;19.40;99.90
6256;DHT22;3161;48.794;9.784;2023-04-23T09:46:48;19.70;99.90
6256;DHT22;3161;48.794;9.784;2023-04-23T09:49:16;19.90;99.90
6256;DHT22;3161;48.794;9.784;2023-04-23T09:51:46;20.00;99.90
6256;DHT22;3161;48.794;9.784;2023-04-23T09:54:15;19.90;99.90
6256;DHT22;3161;48.794;9.784;2023-04-23T09:56:48;19.80;99.90
6256;DHT22;3161;48.794;9.784;2023-04-23T09:59:24;19.60;99.90
6256;DHT22;3161;48.794;9.784;2023-04-23T10:01:52;19.60;99.90
6256;DHT22;3161;48.794;9.784;2023-04-23T10:04:24;19.60;99.90
6256;DHT22;3161;48.794;9.784;2023-04-23T10:06:56;19.60;99.90
6256;DHT22;3161;48.794;9.784;2023-04-23T10:09:26;19.50;99.90
6256;DHT22;3161;48.794;9.784;2023-04-23T10:11:56;19.60;99.90
6256;DHT22;3161;48.794;9.784;2023-04-23T10:14:25;19.80;99.90
6256;DHT22;3161;48.794;9.784;2023-04-23T10:17:01;19.90;99.90
6256;DHT22;3161;48.794;9.784;2023-04-23T10:19:29;20.00;99.90
6256;DHT22;3161;48.794;9.784;2023-04-23T10:22:00;20.10;99.90
6256;DHT22;3161;48.794;9.784;2023-04-23T10:24:32;20.30;99.90
6256;DHT22;3161;48.794;9.784;2023-04-23T10:27:01;20.50;99.90
6256;DHT22;3161;48.794;9.784;2023-04-23T10:29:31;20.70;99.90
6256;DHT22;3161;48.794;9.784;2023-04-23T10:32:01;20.90;99.90
6256;DHT22;3161;48.794;9.784;2023-04-23T10:34:30;21.10;99.90
6256;DHT22;3161;48.794;9.784;2023-04-23T10:36:59;20.90;99.40
6256;DHT22;3161;48.794;9.784;2023-04-23T10:39:33;21.10;99.90
6256;DHT22;3161;48.794;9.784;2023-04-23T10:42:00;21.30;99.80
6256;DHT22;3161;48.794;9.784;2023-04-23T10:44:38;21.50;99.90
6256;DHT22;3161;48.794;9.784;2023-04-23T10:47:09;21.70;98.60
6256;DHT22;3161;48.794;9.784;2023-04-23T10:49:36;21.70;98.60
6256;DHT22;3161;48.794;9.784;2023-04-23T10:52:09;21.70;97.80
6256;DHT22;3161;48.794;9.784;2023-04-23T10:54:40;21.80;96.60
6256;DHT22;3161;48.794;9.784;2023-04-23T10:57:09;21.80;97.70
6256;DHT22;3161;48.794;9.784;2023-04-23T10:59:51;22.00;98.80
6256;DHT22;3161;48.794;9.784;2023-04-23T11:02:11;21.90;95.10
6256;DHT22;3161;48.794;9.784;2023-04-23T11:04:52;22.00;97.40
6256;DHT22;3161;48.794;9.784;2023-04-23T11:07:18;22.10;97.70
6256;DHT22;3161;48.794;9.784;2023-04-23T11:09:49;21.90;93.90
6256;DHT22;3161;48.794;9.784;2023-04-23T11:12:30;21.80;96.10
6256;DHT22;3161;48.794;9.784;2023-04-23T11:14:59;21.60;94.20
6256;DHT22;3161;48.794;9.784;2023-04-23T11:20:09;21.00;94.80
6256;DHT22;3161;48.794;9.784;2023-04-23T11:22:44;20.90;97.00
6256;DHT22;3161;48.794;9.784;2023-04-23T11:25:20;21.10;97.30
6256;DHT22;3161;48.794;9.784;2023-04-23T11:27:49;21.20;98.00
6256;DHT22;3161;48.794;9.784;2023-04-23T11:30:22;21.60;96.70
6256;DHT22;3161;48.794;9.784;2023-04-23T11:32:51;21.90;97.10
6256;DHT22;3161;48.794;9.784;2023-04-23T11:35:20;22.00;97.80
6256;DHT22;3161;48.794;9.784;2023-04-23T11:37:48;22.20;95.70
6256;DHT22;3161;48.794;9.784;2023-04-23T11:40:18;22.30;93.90
6256;DHT22;3161;48.794;9.784;2023-04-23T11:42:47;22.50;94.30
6256;DHT22;3161;48.794;9.784;2023-04-23T11:45:20;22.80;94.60
6256;DHT22;3161;48.794;9.784;2023-04-23T11:47:50;22.90;90.80
6256;DHT22;3161;48.794;9.784;2023-04-23T11:52:52;22.60;93.00
6256;DHT22;3161;48.794;9.784;2023-04-23T11:55:21;22.60;93.50
6256;DHT22;3161;48.794;9.784;2023-04-23T11:57:50;22.70;95.20
6256;DHT22;3161;48.794;9.784;2023-04-23T12:00:20;22.80;92.30
6256;DHT22;3161;48.794;9.784;2023-04-23T12:02:59;23.00;91.40
6256;DHT22;3161;48.794;9.784;2023-04-23T12:08:16;23.90;92.50
6256;DHT22;3161;48.794;9.784;2023-04-23T12:10:51;24.40;89.40
6256;DHT22;3161;48.794;9.784;2023-04-23T12:13:21;24.70;86.60
6256;DHT22;3161;48.794;9.784;2023-04-23T12:15:51;25.10;87.30
6256;DHT22;3161;48.794;9.784;2023-04-23T12:18:28;25.80;83.80
6256;DHT22;3161;48.794;9.784;2023-04-23T12:21:04;26.30;77.30
6256;DHT22;3161;48.794;9.784;2023-04-23T12:23:32;26.60;79.30
6256;DHT22;3161;48.794;9.784;2023-04-23T12:26:20;26.60;77.30
6256;DHT22;3161;48.794;9.784;2023-04-23T12:28:51;26.50;72.00
6256;DHT22;3161;48.794;9.784;2023-04-23T12:31:24;26.00;72.50
6256;DHT22;3161;48.794;9.784;2023-04-23T12:33:56;25.50;75.00
6256;DHT22;3161;48.794;9.784;2023-04-23T12:36:26;25.50;74.90
6256;DHT22;3161;48.794;9.784;2023-04-23T12:39:19;25.70;72.00
6256;DHT22;3161;48.794;9.784;2023-04-23T12:41:55;26.50;70.60
6256;DHT22;3161;48.794;9.784;2023-04-23T12:44:20;28.10;68.80
6256;DHT22;3161;48.794;9.784;2023-04-23T12:46:59;30.10;65.10
6256;DHT22;3161;48.794;9.784;2023-04-23T12:49:29;31.60;54.50
6256;DHT22;3161;48.794;9.784;2023-04-23T12:51:57;32.50;51.80
6256;DHT22;3161;48.794;9.784;2023-04-23T12:54:29;32.40;50.00
6256;DHT22;3161;48.794;9.784;2023-04-23T12:56:58;32.30;48.60
6256;DHT22;3161;48.794;9.784;2023-04-23T12:59:27;31.60;48.80
6256;DHT22;3161;48.794;9.784;2023-04-23T13:01:55;30.20;48.60
6256;DHT22;3161;48.794;9.784;2023-04-23T13:04:25;29.00;52.00
6256;DHT22;3161;48.794;9.784;2023-04-23T13:06:52;28.00;53.50
6256;DHT22;3161;48.794;9.784;2023-04-23T13:09:20;27.60;55.50
6256;DHT22;3161;48.794;9.784;2023-04-23T13:11:49;27.90;54.10
6256;DHT22;3161;48.794;9.784;2023-04-23T13:14:17;28.40;57.70
6256;DHT22;3161;48.794;9.784;2023-04-23T13:16:44;29.50;56.70
6256;DHT22;3161;48.794;9.784;2023-04-23T13:19:12;31.00;52.60
6256;DHT22;3161;48.794;9.784;2023-04-23T13:21:41;32.80;48.20
6256;DHT22;3161;48.794;9.784;2023-04-23T13:24:09;34.30;43.20
6256;DHT22;3161;48.794;9.784;2023-04-23T13:26:36;33.80;43.50
6256;DHT22;3161;48.794;9.784;2023-04-23T13:29:04;32.50;44.50
6256;DHT22;3161;48.794;9.784;2023-04-23T13:31:32;31.10;46.60
6256;DHT22;3161;48.794;9.784;2023-04-23T13:34:00;30.20;48.30
6256;DHT22;3161;48.794;9.784;2023-04-23T13:36:28;30.10;46.90
6256;DHT22;3161;48.794;9.784;2023-04-23T13:38:56;29.90;47.90
6256;DHT22;3161;48.794;9.784;2023-04-23T13:41:23;29.90;47.10
6256;DHT22;3161;48.794;9.784;2023-04-23T13:43:51;29.50;49.60
6256;DHT22;3161;48.794;9.784;2023-04-23T13:46:18;28.70;49.00
6256;DHT22;3161;48.794;9.784;2023-04-23T13:48:46;28.60;50.10
6256;DHT22;3161;48.794;9.784;2023-04-23T13:51:14;29.30;48.30
6256;DHT22;3161;48.794;9.784;2023-04-23T13:53:41;29.40;49.30
6256;DHT22;3161;48.794;9.784;2023-04-23T13:56:09;28.90;49.60
6256;DHT22;3161;48.794;9.784;2023-04-23T13:58:36;27.90;49.80
6256;DHT22;3161;48.794;9.784;2023-04-23T14:01:06;27.80;50.30
6256;DHT22;3161;48.794;9.784;2023-04-23T14:03:33;28.70;50.40
6256;DHT22;3161;48.794;9.784;2023-04-23T14:06:01;28.80;49.30
6256;DHT22;3161;48.794;9.784;2023-04-23T14:08:29;28.30;48.30
6256;DHT22;3161;48.794;9.784;2023-04-23T14:10:57;27.70;50.30
6256;DHT22;3161;48.794;9.784;2023-04-23T14:13:24;27.10;52.90
6256;DHT22;3161;48.794;9.784;2023-04-23T14:15:52;26.30;51.70
6256;DHT22;3161;48.794;9.784;2023-04-23T14:18:19;25.80;54.20
6256;DHT22;3161;48.794;9.784;2023-04-23T14:20:47;25.30;53.00
6256;DHT22;3161;48.794;9.784;2023-04-23T14:26:04;24.30;54.90
6256;DHT22;3161;48.794;9.784;2023-04-23T14:31:03;23.60;56.60
6256;DHT22;3161;48.794;9.784;2023-04-23T14:33:31;23.30;57.20
6256;DHT22;3161;48.794;9.784;2023-04-23T14:35:58;23.10;57.00
6256;DHT22;3161;48.794;9.784;2023-04-23T14:38:26;22.90;60.50
6256;DHT22;3161;48.794;9.784;2023-04-23T14:40:54;23.00;61.00
6256;DHT22;3161;48.794;9.784;2023-04-23T14:43:21;23.00;61.50
6256;DHT22;3161;48.794;9.784;2023-04-23T14:45:49;23.20;61.00
6256;DHT22;3161;48.794;9.784;2023-04-23T14:48:17;23.00;58.70
6256;DHT22;3161;48.794;9.784;2023-04-23T14:50:45;23.00;61.10
6256;DHT22;3161;48.794;9.784;2023-04-23T14:53:12;22.90;60.20
6256;DHT22;3161;48.794;9.784;2023-04-23T14:55:40;22.70;61.60
6256;DHT22;3161;48.794;9.784;2023-04-23T14:58:08;22.60;64.40
6256;DHT22;3161;48.794;9.784;2023-04-23T15:00:36;22.50;67.10
6256;DHT22;3161;48.794;9.784;2023-04-23T15:03:04;22.40;65.90
6256;DHT22;3161;48.794;9.784;2023-04-23T15:05:33;22.40;66.70
6256;DHT22;3161;48.794;9.784;2023-04-23T15:08:01;22.40;67.70
6256;DHT22;3161;48.794;9.784;2023-04-23T15:10:29;22.40;69.10
6256;DHT22;3161;48.794;9.784;2023-04-23T15:13:07;22.40;68.20
6256;DHT22;3161;48.794;9.784;2023-04-23T15:15:47;22.40;69.80
6256;DHT22;3161;48.794;9.784;2023-04-23T15:18:13;22.40;66.60
6256;DHT22;3161;48.794;9.784;2023-04-23T15:20:42;22.30;67.20
6256;DHT22;3161;48.794;9.784;2023-04-23T15:23:10;22.30;68.10
6256;DHT22;3161;48.794;9.784;2023-04-23T15:25:38;22.20;67.40
6256;DHT22;3161;48.794;9.784;2023-04-23T15:28:05;22.10;65.20
6256;DHT22;3161;48.794;9.784;2023-04-23T15:30:33;22.10;66.30
6256;DHT22;3161;48.794;9.784;2023-04-23T15:33:01;22.00;64.80
6256;DHT22;3161;48.794;9.784;2023-04-23T15:35:28;22.00;68.20
6256;DHT22;3161;48.794;9.784;2023-04-23T15:37:56;22.10;67.80
6256;DHT22;3161;48.794;9.784;2023-04-23T15:40:23;22.00;67.50
6256;DHT22;3161;48.794;9.784;2023-04-23T15:42:52;21.90;65.00
6256;DHT22;3161;48.794;9.784;2023-04-23T15:45:20;21.80;64.80
6256;DHT22;3161;48.794;9.784;2023-04-23T15:47:49;21.60;64.20
6256;DHT22;3161;48.794;9.784;2023-04-23T15:50:17;21.50;64.90
6256;DHT22;3161;48.794;9.784;2023-04-23T15:52:46;21.50;68.40
6256;DHT22;3161;48.794;9.784;2023-04-23T15:55:14;21.50;68.50
6256;DHT22;3161;48.794;9.784;2023-04-23T15:57:41;21.50;68.40
6256;DHT22;3161;48.794;9.784;2023-04-23T16:00:09;21.50;69.50
6256;DHT22;3161;48.794;9.784;2023-04-23T16:02:38;21.50;70.00
6256;DHT22;3161;48.794;9.784;2023-04-23T16:05:06;21.40;67.50
6256;DHT22;3161;48.794;9.784;2023-04-23T16:07:33;21.40;67.30
6256;DHT22;3161;48.794;9.784;2023-04-23T16:10:01;21.30;67.70
6256;DHT22;3161;48.794;9.784;2023-04-23T16:12:28;21.30;68.50
6256;DHT22;3161;48.794;9.784;2023-04-23T16:14:57;21.20;67.40
6256;DHT22;3161;48.794;9.784;2023-04-23T16:17:25;21.00;67.20
6256;DHT22;3161;48.794;9.784;2023-04-23T16:20:01;20.80;67.50
6256;DHT22;3161;48.794;9.784;2023-04-23T16:22:30;20.70;69.60
6256;DHT22;3161;48.794;9.784;2023-04-23T16:24:58;20.70;69.70
6256;DHT22;3161;48.794;9.784;2023-04-23T16:27:26;20.70;69.80